Time;durP1;ratioP1;P1;durP2;ratioP2;P2;SDS_P1;SDS_P2;PMS_P1;PMS_P2;Temp;Humidity;BMP_temperature;BMP_pressure;BME280_temperature;BME280_humidity;BME280_pressure;Samples;Min_cycle;Max_cycle;Signal;HPM_P1;HPM_P2
2021/04/21 00:01:46;;;;;;;20.50;17.50;;;;;;;;;;5008838;28;20196;-64
2021/04/21 00:04:14;;;;;;;20.47;18.40;;;;;;;;;;5003232;28;20193;-64
2021/04/21 00:06:40;;;;;;;21.17;18.97;;;;;;;;;;5006274;28;20246;-64
2021/04/21 00:09:08;;;;;;;21.33;19.13;;;;;;;;;;5002321;28;20239;-64
2021/04/21 00:11:34;;;;;;;21.60;19.47;;;;;;;;;;5004333;28;20196;-64
2021/04/21 00:14:01;;;;;;;21.10;19.00;;;;;;;;;;5003497;28;20204;-65
2021/04/21 00:16:28;;;;;;;21.07;18.87;;;;;;;;;;5003615;28;20204;-63
2021/04/21 00:18:54;;;;;;;20.23;18.13;;;;;;;;;;5003625;28;20251;-63
2021/04/21 00:21:22;;;;;;;20.13;18.10;;;;;;;;;;4999615;28;20193;-65
2021/04/21 00:23:49;;;;;;;23.53;18.60;;;;;;;;;;5006118;28;20657;-63
2021/04/21 00:26:21;;;;;;;19.07;17.07;;;;;;;;;;5006411;28;20715;-63
2021/04/21 00:28:47;;;;;;;20.50;18.40;;;;;;;;;;5001794;28;20221;-64
2021/04/21 00:31:14;;;;;;;21.10;18.83;;;;;;;;;;5009130;28;20189;-63
2021/04/21 00:33:42;;;;;;;21.33;19.23;;;;;;;;;;5004281;28;20273;-63
2021/04/21 00:36:10;;;;;;;20.03;18.03;;;;;;;;;;5005857;28;20240;-63
2021/04/21 00:38:38;;;;;;;21.00;18.80;;;;;;;;;;5004460;28;20565;-63
2021/04/21 00:41:12;;;;;;;19.90;17.87;;;;;;;;;;5005953;28;20195;-63
2021/04/21 00:43:54;;;;;;;22.57;20.27;;;;;;;;;;4999700;28;20226;-63
2021/04/21 00:46:31;;;;;;;20.30;18.23;;;;;;;;;;5001256;28;20200;-63
2021/04/21 00:49:09;;;;;;;21.33;18.97;;;;;;;;;;5009972;28;20238;-64
2021/04/21 00:51:38;;;;;;;21.87;19.67;;;;;;;;;;5009767;28;20187;-64
2021/04/21 00:54:07;;;;;;;22.47;20.00;;;;;;;;;;5006802;28;20220;-63
2021/04/21 00:57:04;;;;;;;22.87;18.57;;;;;;;;;;5005254;28;20272;-64
2021/04/21 00:59:39;;;;;;;20.90;18.70;;;;;;;;;;5004699;28;20253;-64
2021/04/21 01:02:07;;;;;;;21.07;18.83;;;;;;;;;;5003675;28;20734;-66
2021/04/21 01:04:34;;;;;;;23.10;19.93;;;;;;;;;;5005433;28;20671;-63
2021/04/21 01:07:01;;;;;;;20.30;18.30;;;;;;;;;;5007598;28;20262;-63
2021/04/21 01:09:29;;;;;;;22.23;19.83;;;;;;;;;;5008356;28;20189;-63
2021/04/21 01:11:59;;;;;;;21.03;18.83;;;;;;;;;;5008730;28;20200;-65
2021/04/21 01:14:27;;;;;;;22.17;19.83;;;;;;;;;;5007239;28;20199;-63
2021/04/21 01:17:04;;;;;;;21.40;19.10;;;;;;;;;;5007065;28;20193;-63
2021/04/21 01:19:45;;;;;;;22.80;20.33;;;;;;;;;;5005980;28;20201;-63
2021/04/21 01:22:14;;;;;;;23.10;20.73;;;;;;;;;;5004691;28;20272;-65
2021/04/21 01:25:00;;;;;;;23.20;20.67;;;;;;;;;;5012818;28;20224;-63
2021/04/21 01:27:48;;;;;;;22.60;20.17;;;;;;;;;;5005808;28;20229;-65
2021/04/21 01:30:18;;;;;;;23.93;19.77;;;;;;;;;;5008605;28;20278;-63
2021/04/21 01:32:45;;;;;;;23.23;20.37;;;;;;;;;;4999927;28;20184;-63
2021/04/21 01:35:12;;;;;;;23.83;21.27;;;;;;;;;;5004474;28;20189;-63
2021/04/21 01:37:38;;;;;;;23.97;20.27;;;;;;;;;;5003649;28;20220;-63
2021/04/21 01:40:10;;;;;;;23.83;20.37;;;;;;;;;;5007604;28;20199;-62
2021/04/21 01:42:39;;;;;;;23.30;20.80;;;;;;;;;;5010713;28;20676;-62
2021/04/21 01:45:05;;;;;;;24.50;21.90;;;;;;;;;;5004324;28;20263;-63
2021/04/21 01:47:32;;;;;;;25.23;21.10;;;;;;;;;;4997834;28;20693;-63
2021/04/21 01:50:00;;;;;;;23.90;20.93;;;;;;;;;;5009806;28;20181;-64
2021/04/21 01:52:29;;;;;;;24.10;21.47;;;;;;;;;;5001704;28;20213;-67
2021/04/21 01:54:58;;;;;;;24.87;22.17;;;;;;;;;;4998946;28;20750;-67
2021/04/21 01:57:44;;;;;;;24.00;21.50;;;;;;;;;;5006302;28;20200;-64
2021/04/21 02:00:34;;;;;;;24.83;21.13;;;;;;;;;;5002176;28;20225;-65
2021/04/21 02:03:03;;;;;;;24.43;21.43;;;;;;;;;;4997365;28;20680;-66
2021/04/21 02:05:32;;;;;;;26.53;21.40;;;;;;;;;;5005638;28;20192;-66
2021/04/21 02:08:17;;;;;;;23.83;21.33;;;;;;;;;;5006845;28;20240;-65
2021/04/21 02:10:46;;;;;;;26.90;22.33;;;;;;;;;;5004719;28;20214;-66
2021/04/21 02:13:19;;;;;;;24.37;21.70;;;;;;;;;;5006849;28;20293;-66
2021/04/21 02:15:50;;;;;;;23.83;21.33;;;;;;;;;;5012473;28;20189;-65
2021/04/21 02:18:22;;;;;;;23.23;20.73;;;;;;;;;;5004167;28;20232;-64
2021/04/21 02:20:48;;;;;;;26.67;21.27;;;;;;;;;;5000077;28;20567;-64
2021/04/21 02:23:23;;;;;;;25.13;21.90;;;;;;;;;;5000388;28;20267;-63
2021/04/21 02:26:02;;;;;;;28.63;22.50;;;;;;;;;;5002934;28;20195;-64
2021/04/21 02:28:47;;;;;;;24.73;21.73;;;;;;;;;;5001611;28;20209;-64
2021/04/21 02:31:20;;;;;;;24.97;21.97;;;;;;;;;;5004440;28;20862;-64
2021/04/21 02:33:55;;;;;;;23.67;20.47;;;;;;;;;;5014506;28;20707;-64
2021/04/21 02:36:41;;;;;;;23.67;21.17;;;;;;;;;;5000460;28;20258;-63
2021/04/21 02:39:13;;;;;;;24.43;20.70;;;;;;;;;;5002112;28;20255;-64
2021/04/21 02:41:45;;;;;;;24.23;21.40;;;;;;;;;;5002517;28;20198;-63
2021/04/21 02:44:28;;;;;;;24.50;21.67;;;;;;;;;;5007792;28;20216;-65
2021/04/21 02:47:01;;;;;;;26.03;21.93;;;;;;;;;;5004263;28;20186;-65
2021/04/21 02:49:43;;;;;;;29.47;25.47;;;;;;;;;;5007890;28;20669;-65
2021/04/21 02:52:28;;;;;;;30.40;23.77;;;;;;;;;;5012105;28;20275;-65
2021/04/21 02:55:18;;;;;;;27.50;22.77;;;;;;;;;;5004858;28;20199;-65
2021/04/21 02:57:46;;;;;;;30.63;22.70;;;;;;;;;;5003439;28;20273;-65
2021/04/21 03:00:20;;;;;;;26.27;21.40;;;;;;;;;;5005222;28;20655;-65
2021/04/21 03:02:54;;;;;;;23.63;20.97;;;;;;;;;;5007810;28;20721;-65
2021/04/21 03:05:23;;;;;;;24.47;19.93;;;;;;;;;;4995119;28;20705;-65
2021/04/21 03:07:52;;;;;;;23.63;21.07;;;;;;;;;;5006517;28;20265;-65
2021/04/21 03:10:18;;;;;;;24.20;21.47;;;;;;;;;;5005774;28;20738;-64
2021/04/21 03:12:47;;;;;;;23.87;20.47;;;;;;;;;;4997413;28;20190;-65
2021/04/21 03:15:15;;;;;;;26.17;19.30;;;;;;;;;;4997543;28;20317;-66
2021/04/21 03:17:42;;;;;;;23.97;19.70;;;;;;;;;;5007255;28;20904;-66
2021/04/21 03:20:16;;;;;;;23.27;19.83;;;;;;;;;;4999115;28;20224;-65
2021/04/21 03:22:44;;;;;;;23.87;19.73;;;;;;;;;;5006887;28;20209;-63
2021/04/21 03:25:19;;;;;;;22.83;20.17;;;;;;;;;;5009174;28;20191;-65
2021/04/21 03:27:48;;;;;;;22.83;19.53;;;;;;;;;;5002531;28;20230;-64
2021/04/21 03:30:17;;;;;;;21.77;19.27;;;;;;;;;;5005576;28;20271;-63
2021/04/21 03:32:51;;;;;;;25.60;19.93;;;;;;;;;;5007637;28;20196;-62
2021/04/21 03:35:18;;;;;;;23.40;20.17;;;;;;;;;;5004362;28;20194;-62
2021/04/21 03:37:50;;;;;;;28.87;21.40;;;;;;;;;;5005141;28;20282;-63
2021/04/21 03:40:17;;;;;;;22.40;19.90;;;;;;;;;;5004148;28;20250;-62
2021/04/21 03:42:43;;;;;;;24.83;19.87;;;;;;;;;;5007316;28;20207;-63
2021/04/21 03:45:10;;;;;;;21.93;19.60;;;;;;;;;;5001775;28;20263;-62
2021/04/21 03:47:37;;;;;;;22.93;20.07;;;;;;;;;;5006402;28;20809;-62
2021/04/21 03:50:04;;;;;;;24.20;21.20;;;;;;;;;;5010285;28;20232;-64
2021/04/21 03:52:32;;;;;;;22.53;20.00;;;;;;;;;;5004730;28;20200;-64
2021/04/21 03:54:59;;;;;;;23.13;19.83;;;;;;;;;;5002107;28;20190;-64
2021/04/21 03:57:26;;;;;;;26.40;21.17;;;;;;;;;;5003258;28;20215;-62
2021/04/21 03:59:53;;;;;;;28.13;22.40;;;;;;;;;;5002972;28;20200;-63
2021/04/21 04:02:20;;;;;;;26.67;21.13;;;;;;;;;;5011546;28;20248;-63
2021/04/21 04:04:48;;;;;;;23.63;20.90;;;;;;;;;;5004165;28;20959;-64
2021/04/21 04:07:15;;;;;;;26.90;22.37;;;;;;;;;;5007007;28;20678;-63
2021/04/21 04:09:45;;;;;;;30.43;25.57;;;;;;;;;;5006200;28;20648;-62
2021/04/21 04:12:12;;;;;;;34.13;27.47;;;;;;;;;;5006769;28;20184;-63
2021/04/21 04:14:39;;;;;;;33.20;26.50;;;;;;;;;;5006498;28;20667;-62
2021/04/21 04:17:05;;;;;;;34.60;26.53;;;;;;;;;;5007755;28;20603;-63
2021/04/21 04:19:32;;;;;;;31.87;24.73;;;;;;;;;;5012745;28;20263;-65
2021/04/21 04:22:05;;;;;;;33.70;26.20;;;;;;;;;;5003912;28;20198;-64
2021/04/21 04:25:04;;;;;;;34.50;27.30;;;;;;;;;;5007502;28;20739;-65
2021/04/21 04:27:30;;;;;;;29.90;25.10;;;;;;;;;;4988316;28;20226;-62
2021/04/21 04:29:58;;;;;;;32.40;25.77;;;;;;;;;;4990086;28;20260;-62
2021/04/21 04:32:25;;;;;;;32.43;26.63;;;;;;;;;;4991349;28;20688;-62
2021/04/21 04:34:52;;;;;;;29.67;23.17;;;;;;;;;;4988734;28;20200;-63
2021/04/21 04:37:20;;;;;;;24.73;20.60;;;;;;;;;;4984205;28;20440;-65
2021/04/21 04:39:46;;;;;;;24.03;20.80;;;;;;;;;;4996213;28;20672;-64
2021/04/21 04:42:13;;;;;;;23.80;20.97;;;;;;;;;;4989071;28;20202;-65
2021/04/21 04:44:40;;;;;;;26.30;22.80;;;;;;;;;;4996521;28;20203;-65
2021/04/21 04:47:08;;;;;;;30.97;23.63;;;;;;;;;;4988826;28;20209;-64
2021/04/21 04:49:48;;;;;;;29.53;24.00;;;;;;;;;;4987599;28;20222;-65
2021/04/21 04:52:16;;;;;;;26.10;23.03;;;;;;;;;;4987215;28;20185;-66
2021/04/21 04:54:42;;;;;;;27.50;22.50;;;;;;;;;;4992092;28;20195;-66
2021/04/21 04:57:09;;;;;;;24.30;21.03;;;;;;;;;;4982082;28;20400;-64
2021/04/21 04:59:37;;;;;;;25.47;22.37;;;;;;;;;;4982367;28;20187;-66
2021/04/21 05:02:04;;;;;;;26.07;21.97;;;;;;;;;;4988217;28;20200;-64
2021/04/21 05:04:33;;;;;;;26.80;22.13;;;;;;;;;;5005574;28;20221;-63
2021/04/21 05:07:03;;;;;;;26.83;22.97;;;;;;;;;;5001462;28;20191;-64
2021/04/21 05:09:30;;;;;;;25.53;21.23;;;;;;;;;;5006776;28;20242;-63
2021/04/21 05:12:01;;;;;;;25.20;20.57;;;;;;;;;;5005215;28;20184;-63
2021/04/21 05:14:29;;;;;;;23.20;19.53;;;;;;;;;;4999994;28;20195;-62
2021/04/21 05:16:54;;;;;;;24.30;19.20;;;;;;;;;;5004097;28;20244;-63
2021/04/21 05:19:39;;;;;;;22.23;19.23;;;;;;;;;;5002713;28;20204;-65
2021/04/21 05:22:13;;;;;;;21.47;18.20;;;;;;;;;;5002101;28;20293;-65
2021/04/21 05:24:57;;;;;;;23.60;16.37;;;;;;;;;;5003514;28;20274;-64
2021/04/21 05:27:42;;;;;;;20.93;16.63;;;;;;;;;;5008314;28;20234;-64
2021/04/21 05:30:20;;;;;;;23.30;16.23;;;;;;;;;;5000446;28;20283;-63
2021/04/21 05:32:58;;;;;;;18.97;16.77;;;;;;;;;;5009110;28;20276;-63
2021/04/21 05:35:42;;;;;;;24.47;17.73;;;;;;;;;;5002445;28;20688;-65
2021/04/21 05:38:27;;;;;;;21.03;16.47;;;;;;;;;;5006064;28;20654;-65
2021/04/21 05:40:55;;;;;;;19.50;17.50;;;;;;;;;;5001739;28;20195;-65
2021/04/21 05:43:24;;;;;;;20.70;14.20;;;;;;;;;;5000571;28;20198;-64
2021/04/21 05:45:50;;;;;;;17.63;14.17;;;;;;;;;;5007421;28;20181;-63
2021/04/21 05:48:28;;;;;;;23.27;14.20;;;;;;;;;;5002471;28;20646;-63
2021/04/21 05:51:23;;;;;;;21.60;15.50;;;;;;;;;;5001082;28;20196;-65
2021/04/21 05:53:52;;;;;;;19.87;16.23;;;;;;;;;;4978976;28;20739;-63
2021/04/21 05:56:37;;;;;;;23.00;16.67;;;;;;;;;;5003697;28;20284;-63
2021/04/21 05:59:21;;;;;;;16.63;14.93;;;;;;;;;;5004527;28;20213;-62
2021/04/21 06:01:48;;;;;;;20.53;15.77;;;;;;;;;;4999972;28;20194;-63
2021/04/21 06:04:16;;;;;;;22.07;15.33;;;;;;;;;;5009755;28;20202;-63
2021/04/21 06:06:42;;;;;;;24.33;14.67;;;;;;;;;;5004656;28;20188;-63
2021/04/21 06:09:09;;;;;;;24.03;15.83;;;;;;;;;;5001641;28;20205;-64
2021/04/21 06:11:35;;;;;;;16.67;14.77;;;;;;;;;;5018823;28;20195;-63
2021/04/21 06:14:03;;;;;;;21.53;15.60;;;;;;;;;;5006219;28;20209;-63
2021/04/21 06:16:29;;;;;;;18.87;15.63;;;;;;;;;;5002139;28;20190;-63
2021/04/21 06:19:00;;;;;;;23.63;16.73;;;;;;;;;;5006737;28;20240;-62
2021/04/21 06:21:28;;;;;;;21.57;18.77;;;;;;;;;;4998789;28;20250;-64
2021/04/21 06:23:55;;;;;;;22.90;18.70;;;;;;;;;;4997922;28;20224;-62
2021/04/21 06:26:22;;;;;;;21.73;16.40;;;;;;;;;;5001812;28;20255;-61
2021/04/21 06:29:01;;;;;;;24.97;18.00;;;;;;;;;;5004118;28;20225;-63
2021/04/21 06:31:34;;;;;;;18.33;15.67;;;;;;;;;;5005393;28;20191;-63
2021/04/21 06:34:00;;;;;;;18.60;15.23;;;;;;;;;;5001320;28;20232;-63
2021/04/21 06:36:31;;;;;;;17.77;15.43;;;;;;;;;;5005568;28;20181;-63
2021/04/21 06:38:57;;;;;;;18.70;14.27;;;;;;;;;;4999233;28;20247;-64
2021/04/21 06:41:27;;;;;;;18.17;16.17;;;;;;;;;;4995013;28;20697;-64
2021/04/21 06:43:55;;;;;;;17.63;15.80;;;;;;;;;;5001863;28;20205;-64
2021/04/21 06:46:21;;;;;;;17.57;15.80;;;;;;;;;;4998385;28;20185;-64
2021/04/21 06:48:51;;;;;;;16.80;15.00;;;;;;;;;;5007011;28;20636;-64
2021/04/21 06:51:18;;;;;;;17.17;15.37;;;;;;;;;;5000300;28;20181;-63
2021/04/21 06:53:45;;;;;;;20.92;15.63;;;;;;;;;;4995202;28;20315;-65
2021/04/21 06:56:12;;;;;;;17.88;15.70;;;;;;;;;;5003936;28;20239;-63
2021/04/21 06:58:39;;;;;;;17.40;15.02;;;;;;;;;;5005185;28;20219;-63
2021/04/21 07:01:09;;;;;;;19.95;15.25;;;;;;;;;;5000700;28;20192;-63
2021/04/21 07:03:35;;;;;;;17.63;15.18;;;;;;;;;;5008295;28;20702;-64
2021/04/21 07:06:02;;;;;;;19.67;15.68;;;;;;;;;;4998428;28;20200;-64
2021/04/21 07:08:29;;;;;;;19.05;14.90;;;;;;;;;;5001973;28;20319;-63
2021/04/21 07:10:56;;;;;;;17.90;15.52;;;;;;;;;;5000891;28;20232;-63
2021/04/21 07:13:26;;;;;;;15.98;14.35;;;;;;;;;;5008697;28;20256;-63
2021/04/21 07:15:58;;;;;;;16.80;15.07;;;;;;;;;;5002297;28;20297;-62
2021/04/21 07:18:27;;;;;;;16.13;14.48;;;;;;;;;;5005145;28;20288;-61
2021/04/21 07:20:55;;;;;;;17.17;15.48;;;;;;;;;;5006989;28;20185;-62
2021/04/21 07:23:22;;;;;;;17.35;15.48;;;;;;;;;;5002531;28;20248;-63
2021/04/21 07:25:49;;;;;;;20.23;14.40;;;;;;;;;;5003981;28;20300;-62
2021/04/21 07:28:16;;;;;;;17.38;15.60;;;;;;;;;;5008824;28;20661;-63
2021/04/21 07:30:42;;;;;;;18.00;15.95;;;;;;;;;;5004283;28;20199;-66
2021/04/21 07:33:09;;;;;;;16.63;14.82;;;;;;;;;;5001580;28;20280;-63
2021/04/21 07:35:35;;;;;;;16.65;15.00;;;;;;;;;;5003866;28;20186;-63
2021/04/21 07:38:02;;;;;;;17.42;15.63;;;;;;;;;;5003295;28;20201;-63
2021/04/21 07:40:32;;;;;;;15.98;14.48;;;;;;;;;;5006063;28;20266;-63
2021/04/21 07:43:05;;;;;;;16.85;15.15;;;;;;;;;;4997786;28;20684;-63
2021/04/21 07:45:45;;;;;;;16.67;15.05;;;;;;;;;;5001461;28;20185;-62
2021/04/21 07:48:30;;;;;;;16.23;14.45;;;;;;;;;;4999532;28;20296;-63
2021/04/21 07:50:56;;;;;;;16.77;13.98;;;;;;;;;;4995206;28;20193;-63
2021/04/21 07:53:22;;;;;;;15.45;13.95;;;;;;;;;;5007778;28;20194;-64
2021/04/21 07:55:48;;;;;;;15.88;14.18;;;;;;;;;;5002028;28;20510;-64
2021/04/21 07:58:22;;;;;;;14.90;13.40;;;;;;;;;;4999999;28;20208;-64
2021/04/21 08:00:48;;;;;;;15.38;13.85;;;;;;;;;;5002534;28;20185;-63
2021/04/21 08:03:24;;;;;;;15.65;14.07;;;;;;;;;;5000913;28;20683;-64
2021/04/21 08:05:51;;;;;;;15.57;14.05;;;;;;;;;;5000097;28;20188;-63
2021/04/21 08:08:26;;;;;;;14.95;13.35;;;;;;;;;;5004462;28;20216;-66
2021/04/21 08:10:52;;;;;;;15.02;13.63;;;;;;;;;;5001777;28;20239;-66
2021/04/21 08:13:38;;;;;;;14.77;13.25;;;;;;;;;;4992639;28;20201;-62
2021/04/21 08:16:04;;;;;;;15.80;14.40;;;;;;;;;;4995500;28;20535;-64
2021/04/21 08:18:33;;;;;;;15.90;14.40;;;;;;;;;;5001201;28;20202;-65
2021/04/21 08:20:59;;;;;;;15.60;14.10;;;;;;;;;;4999347;28;20693;-65
2021/04/21 08:23:25;;;;;;;17.05;15.25;;;;;;;;;;5023351;28;20276;-66
2021/04/21 08:25:51;;;;;;;17.58;15.88;;;;;;;;;;5006919;28;20243;-66
2021/04/21 08:28:19;;;;;;;16.67;15.07;;;;;;;;;;4996977;28;20346;-63
2021/04/21 08:30:52;;;;;;;17.20;15.52;;;;;;;;;;4995420;28;20186;-65
2021/04/21 08:33:18;;;;;;;16.85;15.23;;;;;;;;;;5006456;28;20178;-64
2021/04/21 08:35:44;;;;;;;16.38;14.77;;;;;;;;;;4996310;28;20699;-65
2021/04/21 08:38:10;;;;;;;16.50;14.85;;;;;;;;;;4999523;28;20220;-65
2021/04/21 08:40:40;;;;;;;15.90;14.10;;;;;;;;;;5005326;28;20193;-64
2021/04/21 08:43:07;;;;;;;17.08;14.80;;;;;;;;;;4994441;28;20201;-64
2021/04/21 08:45:33;;;;;;;17.75;16.02;;;;;;;;;;5002163;28;20193;-64
2021/04/21 08:47:59;;;;;;;20.40;15.45;;;;;;;;;;5001733;28;20722;-65
2021/04/21 08:50:28;;;;;;;15.93;14.43;;;;;;;;;;5004684;28;20197;-64
2021/04/21 08:52:56;;;;;;;17.98;16.23;;;;;;;;;;4999967;28;20177;-65
2021/04/21 08:55:22;;;;;;;19.00;16.13;;;;;;;;;;5022931;28;20209;-64
2021/04/21 08:57:49;;;;;;;16.77;15.18;;;;;;;;;;5009129;28;20295;-65
2021/04/21 09:00:15;;;;;;;17.30;15.50;;;;;;;;;;5006508;28;20191;-64
2021/04/21 09:02:42;;;;;;;17.02;15.45;;;;;;;;;;5002681;28;20184;-64
2021/04/21 09:05:09;;;;;;;16.50;14.88;;;;;;;;;;5002259;28;20181;-64
2021/04/21 09:07:38;;;;;;;15.55;14.05;;;;;;;;;;4999914;28;20217;-64
2021/04/21 09:10:05;;;;;;;17.38;15.65;;;;;;;;;;5008794;28;20280;-64
2021/04/21 09:12:31;;;;;;;17.10;15.50;;;;;;;;;;4998484;28;20257;-64
2021/04/21 09:14:57;;;;;;;16.33;14.75;;;;;;;;;;5001875;28;20601;-64
2021/04/21 09:17:23;;;;;;;15.82;14.43;;;;;;;;;;5002364;28;20227;-64
2021/04/21 09:19:49;;;;;;;15.43;14.02;;;;;;;;;;5002901;28;20181;-64
2021/04/21 09:22:15;;;;;;;16.30;14.80;;;;;;;;;;5005832;28;20205;-63
2021/04/21 09:24:42;;;;;;;16.80;14.90;;;;;;;;;;5004117;28;20180;-64
2021/04/21 09:27:28;;;;;;;13.88;12.57;;;;;;;;;;5005322;28;20235;-64
2021/04/21 09:30:12;;;;;;;15.65;14.10;;;;;;;;;;4999430;28;20217;-64
2021/04/21 09:32:45;;;;;;;14.73;13.23;;;;;;;;;;5002274;28;20242;-64
2021/04/21 09:35:15;;;;;;;13.82;12.52;;;;;;;;;;5002627;28;20177;-64
2021/04/21 09:37:41;;;;;;;14.95;13.60;;;;;;;;;;5005920;28;20258;-64
2021/04/21 09:40:10;;;;;;;14.77;13.20;;;;;;;;;;5001373;28;20614;-64
2021/04/21 09:42:36;;;;;;;14.55;12.63;;;;;;;;;;4996464;28;20673;-65
2021/04/21 09:45:02;;;;;;;12.15;10.98;;;;;;;;;;5001333;28;20197;-64
2021/04/21 09:47:28;;;;;;;13.30;12.10;;;;;;;;;;5002623;28;20251;-64
2021/04/21 09:49:55;;;;;;;12.85;11.65;;;;;;;;;;5009437;28;20182;-64
2021/04/21 09:52:21;;;;;;;13.40;12.10;;;;;;;;;;5002899;28;20265;-63
2021/04/21 09:54:48;;;;;;;12.88;11.73;;;;;;;;;;5006206;28;20205;-63
2021/04/21 09:57:19;;;;;;;12.70;11.55;;;;;;;;;;4999066;28;20201;-64
2021/04/21 09:59:57;;;;;;;13.27;12.05;;;;;;;;;;4999833;28;20730;-63
2021/04/21 10:02:33;;;;;;;13.30;11.98;;;;;;;;;;4999545;28;20197;-64
2021/04/21 10:05:18;;;;;;;11.40;10.35;;;;;;;;;;5000373;28;20197;-64
2021/04/21 10:07:44;;;;;;;13.95;12.02;;;;;;;;;;4999376;28;20208;-65
2021/04/21 10:10:10;;;;;;;15.23;12.00;;;;;;;;;;5002996;28;21611;-64
2021/04/21 10:12:39;;;;;;;10.10;8.90;;;;;;;;;;5005059;28;20193;-66
2021/04/21 10:15:09;;;;;;;10.10;9.02;;;;;;;;;;5003429;28;20178;-65
2021/04/21 10:17:45;;;;;;;10.27;9.38;;;;;;;;;;5002786;28;20213;-65
2021/04/21 10:20:13;;;;;;;11.10;9.95;;;;;;;;;;4999747;28;20185;-65
2021/04/21 10:22:39;;;;;;;11.32;10.20;;;;;;;;;;5002171;28;20187;-63
2021/04/21 10:25:06;;;;;;;10.68;9.60;;;;;;;;;;4997247;28;20188;-64
2021/04/21 10:27:33;;;;;;;9.40;8.50;;;;;;;;;;5002537;28;20225;-64
2021/04/21 10:30:00;;;;;;;11.00;8.00;;;;;;;;;;5005198;28;20189;-65
2021/04/21 10:32:26;;;;;;;10.45;9.35;;;;;;;;;;5000825;28;20208;-64
2021/04/21 10:34:53;;;;;;;10.00;8.63;;;;;;;;;;4997429;28;20197;-64
2021/04/21 10:37:19;;;;;;;10.30;9.30;;;;;;;;;;5004547;28;20221;-63
2021/04/21 10:39:46;;;;;;;10.45;9.23;;;;;;;;;;5006237;28;20192;-63
2021/04/21 10:42:16;;;;;;;9.60;8.63;;;;;;;;;;5002885;28;20185;-62
2021/04/21 10:44:44;;;;;;;10.23;9.18;;;;;;;;;;5019152;28;20267;-63
2021/04/21 10:47:13;;;;;;;10.20;9.02;;;;;;;;;;5002322;28;20211;-65
2021/04/21 10:50:03;;;;;;;9.90;8.85;;;;;;;;;;5004890;28;20294;-64
2021/04/21 10:52:29;;;;;;;9.75;8.77;;;;;;;;;;5004235;28;20174;-65
2021/04/21 10:55:08;;;;;;;10.35;9.35;;;;;;;;;;5001769;28;20196;-63
2021/04/21 10:57:38;;;;;;;9.48;8.35;;;;;;;;;;5000294;28;20664;-65
2021/04/21 11:00:18;;;;;;;9.95;9.02;;;;;;;;;;5005722;28;20655;-64
2021/04/21 11:02:55;;;;;;;9.23;8.20;;;;;;;;;;5005265;28;20584;-65
2021/04/21 11:05:22;;;;;;;10.25;9.25;;;;;;;;;;5006670;28;20687;-65
2021/04/21 11:08:00;;;;;;;9.00;8.20;;;;;;;;;;4989909;28;20213;-63
2021/04/21 11:10:46;;;;;;;10.07;9.07;;;;;;;;;;5002651;28;20189;-63
2021/04/21 11:13:17;;;;;;;14.65;10.07;;;;;;;;;;4995068;28;20209;-64
2021/04/21 11:15:47;;;;;;;8.43;7.60;;;;;;;;;;4999659;28;20261;-63
2021/04/21 11:18:25;;;;;;;9.93;8.40;;;;;;;;;;4990269;28;20248;-62
2021/04/21 11:20:52;;;;;;;12.45;8.52;;;;;;;;;;5000920;28;20193;-64
2021/04/21 11:23:37;;;;;;;8.15;7.40;;;;;;;;;;5000514;28;20188;-64
2021/04/21 11:26:21;;;;;;;8.45;7.65;;;;;;;;;;5001034;28;20189;-65
2021/04/21 11:29:06;;;;;;;7.75;6.93;;;;;;;;;;5003209;28;20297;-66
2021/04/21 11:34:16;;;;;;;8.05;6.90;;;;;;;;;;4997484;28;20208;-64
2021/04/21 11:36:58;;;;;;;7.30;6.60;;;;;;;;;;4994892;28;20204;-63
2021/04/21 11:39:43;;;;;;;8.95;7.68;;;;;;;;;;4999076;28;20617;-65
2021/04/21 11:42:30;;;;;;;8.07;7.40;;;;;;;;;;5001940;28;20771;-64
2021/04/21 11:45:02;;;;;;;5.38;4.88;;;;;;;;;;4991058;28;20201;-64
2021/04/21 11:47:31;;;;;;;5.90;5.40;;;;;;;;;;4999669;28;20213;-64
2021/04/21 11:50:00;;;;;;;6.60;6.00;;;;;;;;;;5006162;28;20184;-64
2021/04/21 11:52:44;;;;;;;5.93;5.43;;;;;;;;;;4999589;28;20272;-65
2021/04/21 11:55:18;;;;;;;5.20;4.50;;;;;;;;;;4999854;28;20673;-65
2021/04/21 11:57:49;;;;;;;6.97;5.35;;;;;;;;;;5003216;28;20217;-63
2021/04/21 12:00:15;;;;;;;7.35;6.50;;;;;;;;;;5001498;28;20719;-65
2021/04/21 12:02:41;;;;;;;6.97;6.38;;;;;;;;;;5001640;28;20220;-65
2021/04/21 12:05:07;;;;;;;7.53;6.35;;;;;;;;;;4998865;28;20232;-65
2021/04/21 12:07:34;;;;;;;5.72;5.07;;;;;;;;;;5006632;28;20209;-66
2021/04/21 12:10:00;;;;;;;5.38;4.75;;;;;;;;;;5004769;28;20578;-65
2021/04/21 12:12:26;;;;;;;6.55;5.95;;;;;;;;;;4999445;28;20188;-64
2021/04/21 12:15:06;;;;;;;7.15;6.45;;;;;;;;;;5003779;28;20266;-64
2021/04/21 12:17:32;;;;;;;6.95;6.35;;;;;;;;;;4998731;28;20559;-66
2021/04/21 12:19:59;;;;;;;8.27;6.13;;;;;;;;;;4996497;28;20722;-64
2021/04/21 12:22:38;;;;;;;6.93;5.93;;;;;;;;;;5009518;28;20204;-65
2021/04/21 12:25:07;;;;;;;7.10;6.40;;;;;;;;;;5003905;28;20220;-64
2021/04/21 12:27:34;;;;;;;7.43;6.00;;;;;;;;;;5004193;28;20212;-65
2021/04/21 12:30:13;;;;;;;8.23;6.15;;;;;;;;;;5003912;28;20177;-65
2021/04/21 12:32:39;;;;;;;7.80;6.22;;;;;;;;;;5007419;28;20183;-65
2021/04/21 12:35:07;;;;;;;6.57;5.97;;;;;;;;;;5001642;28;20200;-64
2021/04/21 12:37:33;;;;;;;7.68;6.65;;;;;;;;;;5007127;28;20201;-65
2021/04/21 12:39:59;;;;;;;7.53;6.78;;;;;;;;;;5004707;28;20181;-66
2021/04/21 12:42:25;;;;;;;8.15;7.15;;;;;;;;;;5008306;28;20558;-65
2021/04/21 12:44:51;;;;;;;8.50;7.20;;;;;;;;;;5003394;28;20216;-65
2021/04/21 12:47:17;;;;;;;6.97;6.38;;;;;;;;;;5008399;28;20235;-65
2021/04/21 12:49:46;;;;;;;6.32;5.72;;;;;;;;;;5003464;28;20209;-65
2021/04/21 12:52:13;;;;;;;6.80;5.65;;;;;;;;;;5008599;28;20181;-64
2021/04/21 12:54:41;;;;;;;9.45;6.18;;;;;;;;;;5005917;28;20550;-65
2021/04/21 12:57:09;;;;;;;6.50;5.90;;;;;;;;;;4999911;28;21328;-65
2021/04/21 12:59:39;;;;;;;8.35;6.40;;;;;;;;;;5006983;28;20197;-65
2021/04/21 13:02:05;;;;;;;6.00;5.40;;;;;;;;;;5007794;28;20197;-65
2021/04/21 13:04:35;;;;;;;6.68;6.07;;;;;;;;;;5005385;28;20185;-65
2021/04/21 13:07:11;;;;;;;7.60;6.15;;;;;;;;;;5004884;28;21518;-64
2021/04/21 13:09:37;;;;;;;6.45;5.50;;;;;;;;;;5010277;28;20211;-66
2021/04/21 13:12:05;;;;;;;7.40;6.65;;;;;;;;;;5002506;28;20192;-66
2021/04/21 13:14:38;;;;;;;7.18;6.50;;;;;;;;;;5003068;28;20189;-65
2021/04/21 13:17:05;;;;;;;8.50;7.68;;;;;;;;;;5005051;28;20190;-65
2021/04/21 13:19:32;;;;;;;10.50;6.85;;;;;;;;;;5008270;28;20185;-65
2021/04/21 13:22:03;;;;;;;7.65;6.97;;;;;;;;;;4994023;28;20802;-65
2021/04/21 13:24:37;;;;;;;7.63;6.93;;;;;;;;;;5003750;28;20193;-65
2021/04/21 13:27:03;;;;;;;8.43;7.20;;;;;;;;;;5001327;28;20197;-65
2021/04/21 13:29:32;;;;;;;8.15;7.10;;;;;;;;;;5002303;28;20209;-65
2021/04/21 13:32:08;;;;;;;7.75;6.25;;;;;;;;;;4998606;28;20269;-64
2021/04/21 13:34:34;;;;;;;9.20;8.30;;;;;;;;;;5009907;28;20181;-65
2021/04/21 13:37:01;;;;;;;9.50;6.30;;;;;;;;;;5003012;28;20201;-65
2021/04/21 13:39:27;;;;;;;7.43;6.47;;;;;;;;;;5002115;28;20561;-65
2021/04/21 13:41:53;;;;;;;7.63;6.82;;;;;;;;;;5006869;28;20192;-64
2021/04/21 13:44:19;;;;;;;8.65;7.85;;;;;;;;;;5001430;28;20180;-64
2021/04/21 13:46:45;;;;;;;8.85;7.45;;;;;;;;;;5006483;28;20866;-66
2021/04/21 13:49:11;;;;;;;9.02;7.43;;;;;;;;;;5004416;28;20201;-64
2021/04/21 13:51:37;;;;;;;8.60;6.80;;;;;;;;;;5005964;28;20247;-64
2021/04/21 13:54:03;;;;;;;8.93;8.10;;;;;;;;;;5002860;28;20220;-63
2021/04/21 13:56:29;;;;;;;8.95;8.05;;;;;;;;;;5003929;28;20300;-64
2021/04/21 13:58:55;;;;;;;8.98;8.18;;;;;;;;;;5000862;28;20295;-67
2021/04/21 14:01:21;;;;;;;8.73;7.93;;;;;;;;;;5013161;28;20188;-66
2021/04/21 14:03:47;;;;;;;8.60;7.78;;;;;;;;;;5000549;28;20610;-65
2021/04/21 14:06:13;;;;;;;10.52;7.90;;;;;;;;;;5002884;28;20213;-66
2021/04/21 14:08:39;;;;;;;9.27;8.38;;;;;;;;;;5009166;28;20277;-64
2021/04/21 14:11:05;;;;;;;9.95;8.43;;;;;;;;;;5003133;28;20189;-64
2021/04/21 14:13:31;;;;;;;8.07;7.28;;;;;;;;;;5005556;28;20177;-64
2021/04/21 14:15:58;;;;;;;8.90;7.93;;;;;;;;;;4998845;28;20652;-64
2021/04/21 14:18:25;;;;;;;8.77;7.97;;;;;;;;;;5009362;28;20212;-64
2021/04/21 14:20:51;;;;;;;7.88;7.18;;;;;;;;;;5003903;28;20248;-63
2021/04/21 14:23:17;;;;;;;10.35;7.85;;;;;;;;;;4999101;28;20185;-65
2021/04/21 14:25:43;;;;;;;9.10;7.45;;;;;;;;;;5009722;28;20184;-64
2021/04/21 14:28:09;;;;;;;9.70;8.32;;;;;;;;;;5000920;28;20608;-64
2021/04/21 14:30:35;;;;;;;10.85;8.82;;;;;;;;;;5009908;28;20233;-64
2021/04/21 14:33:01;;;;;;;8.32;7.43;;;;;;;;;;5004073;28;20187;-64
2021/04/21 14:35:27;;;;;;;7.38;6.68;;;;;;;;;;5000940;28;20190;-65
2021/04/21 14:37:54;;;;;;;8.52;7.45;;;;;;;;;;4998534;28;20244;-66
2021/04/21 14:40:20;;;;;;;7.85;7.15;;;;;;;;;;4999582;28;20193;-65
2021/04/21 14:42:46;;;;;;;8.52;7.72;;;;;;;;;;4992257;28;20251;-63
2021/04/21 14:45:12;;;;;;;8.25;7.45;;;;;;;;;;5005126;28;20194;-64